createdAt,value
2018-04-02T00:00:40.186Z,26.7
2018-04-02T00:01:29.325Z,26.7
2018-04-02T00:02:19.554Z,26.6
2018-04-02T00:03:10.876Z,26.6
2018-04-02T00:04:00.470Z,26.6
2018-04-02T00:04:51.487Z,26.6
2018-04-02T00:05:40.365Z,26.5
2018-04-02T00:06:31.246Z,26.5
2018-04-02T00:07:19.634Z,26.4
2018-04-02T00:08:11.263Z,26.4
2018-04-02T00:09:01.068Z,26.3
2018-04-02T00:09:51.653Z,26.2
2018-04-02T00:10:42.016Z,26.1
2018-04-02T00:11:31.578Z,26
2018-04-02T00:12:21.197Z,25.9
2018-04-02T00:13:11.882Z,25.9
2018-04-02T00:14:01.491Z,25.8
2018-04-02T00:14:51.440Z,25.7
2018-04-02T00:15:42.036Z,25.6
2018-04-02T00:16:32.396Z,25.6
2018-04-02T00:17:22.111Z,25.6
2018-04-02T00:18:11.868Z,25.6
2018-04-02T00:19:01.467Z,25.7
2018-04-02T00:19:51.932Z,25.8
2018-04-02T00:20:41.802Z,25.8
2018-04-02T00:21:31.731Z,25.9
2018-04-02T00:22:22.510Z,26
2018-04-02T00:23:12.632Z,26.1
2018-04-02T00:24:02.432Z,26.2
2018-04-02T00:24:51.698Z,26.3
2018-04-02T00:25:42.653Z,26.4
2018-04-02T00:26:32.295Z,26.4
2018-04-02T00:27:22.453Z,26.6
2018-04-02T00:28:12.637Z,26.6
2018-04-02T00:29:02.764Z,26.8
2018-04-02T00:29:52.570Z,26.8
2018-04-02T00:30:42.193Z,26.9
2018-04-02T00:31:33.364Z,26.9
2018-04-02T00:32:22.441Z,26.9
2018-04-02T00:33:12.504Z,27
2018-04-02T00:34:03.346Z,27
2018-04-02T00:34:52.730Z,27
2018-04-02T00:35:43.724Z,27
2018-04-02T00:36:34.057Z,26.9
2018-04-02T00:37:24.405Z,26.9
2018-04-02T00:38:14.175Z,26.9
2018-04-02T00:39:04.827Z,26.9
2018-04-02T00:39:54.058Z,26.8
2018-04-02T00:40:43.512Z,26.8
2018-04-02T00:41:33.697Z,26.8
2018-04-02T00:42:23.788Z,26.8
2018-04-02T00:43:14.384Z,26.8
2018-04-02T00:44:04.157Z,26.7
2018-04-02T00:44:54.496Z,26.6
2018-04-02T00:45:44.379Z,26.5
2018-04-02T00:46:34.671Z,26.4
2018-04-02T00:47:25.188Z,26.3
2018-04-02T00:48:15.216Z,26.3
2018-04-02T00:49:05.016Z,26.1
2018-04-02T00:49:55.011Z,26.1
2018-04-02T00:50:45.445Z,26.1
2018-04-02T00:51:34.689Z,25.9
2018-04-02T00:52:24.921Z,25.8
2018-04-02T00:53:15.600Z,25.8
2018-04-02T00:54:05.650Z,25.8
2018-04-02T00:54:56.003Z,25.8
2018-04-02T00:55:45.202Z,25.9
2018-04-02T00:56:35.769Z,25.9
2018-04-02T00:57:24.118Z,25.9
2018-04-02T00:58:15.256Z,26.1
2018-04-02T00:59:05.194Z,26.1
2018-04-02T00:59:55.580Z,26.3
2018-04-02T01:00:44.797Z,26.3
2018-04-02T01:01:35.016Z,26.4
2018-04-02T01:02:25.095Z,26.5
2018-04-02T01:03:15.195Z,26.6
2018-04-02T01:04:04.341Z,26.7
2018-04-02T01:04:54.835Z,26.8
2018-04-02T01:05:45.035Z,26.8
2018-04-02T01:06:35.789Z,26.9
2018-04-02T01:07:24.928Z,26.9
2018-04-02T01:08:15.908Z,27.1
2018-04-02T01:09:05.439Z,27.1
2018-04-02T01:09:55.852Z,27.2
2018-04-02T01:10:46.208Z,27.2
2018-04-02T01:11:35.762Z,27.1
2018-04-02T01:12:26.380Z,27.1
2018-04-02T01:13:15.742Z,27.1
2018-04-02T01:14:05.758Z,27.1
2018-04-02T01:14:56.105Z,27.1
2018-04-02T01:15:47.016Z,27.1
2018-04-02T01:16:36.227Z,27
2018-04-02T01:17:25.919Z,26.9
2018-04-02T01:18:16.334Z,26.9
2018-04-02T01:19:06.411Z,26.9
2018-04-02T01:19:56.552Z,26.9
2018-04-02T01:20:45.980Z,26.8
2018-04-02T01:21:36.507Z,26.8
2018-04-02T01:22:26.885Z,26.6
2018-04-02T01:23:16.149Z,26.6
2018-04-02T01:24:05.690Z,26.4
2018-04-02T01:24:56.976Z,26.4
2018-04-02T01:25:47.193Z,26.3
2018-04-02T01:26:36.441Z,26.3
2018-04-02T01:27:26.749Z,26.2
2018-04-02T01:28:15.713Z,26.1
2018-04-02T01:29:07.067Z,26
2018-04-02T01:29:57.381Z,25.9
2018-04-02T01:30:47.249Z,25.9
2018-04-02T01:31:36.627Z,25.9
2018-04-02T01:32:27.619Z,26
2018-04-02T01:33:16.816Z,26.1
2018-04-02T01:34:06.531Z,26.1
2018-04-02T01:34:58.305Z,26.1
2018-04-02T01:35:47.843Z,26.2
2018-04-02T01:36:37.946Z,26.3
2018-04-02T01:37:27.548Z,26.4
2018-04-02T01:38:17.190Z,26.4
2018-04-02T01:39:07.665Z,26.6
2018-04-02T01:39:58.100Z,26.6
2018-04-02T01:40:48.345Z,26.7
2018-04-02T01:41:38.401Z,26.8
2018-04-02T01:42:28.579Z,26.9
2018-04-02T01:43:18.151Z,27
2018-04-02T01:44:07.945Z,27.1
2018-04-02T01:44:57.710Z,27.1
2018-04-02T01:45:48.268Z,27.2
2018-04-02T01:46:38.135Z,27.3
2018-04-02T01:47:28.007Z,27.3
2018-04-02T01:48:19.315Z,27.3
2018-04-02T01:49:09.624Z,27.3
2018-04-02T01:49:59.982Z,27.3
2018-04-02T01:50:49.842Z,27.2
2018-04-02T01:51:39.555Z,27.2
2018-04-02T01:52:29.861Z,27.2
2018-04-02T01:53:19.355Z,27.1
2018-04-02T01:54:09.495Z,27.1
2018-04-02T01:54:59.052Z,27.1
2018-04-02T01:55:49.098Z,27
2018-04-02T01:56:39.629Z,27
2018-04-02T01:57:28.142Z,26.9
2018-04-02T01:58:19.669Z,26.9
2018-04-02T01:59:08.189Z,26.8
2018-04-02T01:59:59.213Z,26.8
2018-04-02T02:00:48.269Z,26.7
2018-04-02T02:01:39.542Z,26.6
2018-04-02T02:02:29.188Z,26.4
2018-04-02T02:03:19.814Z,26.4
2018-04-02T02:04:08.719Z,26.3
2018-04-02T02:04:59.017Z,26.3
2018-04-02T02:05:48.757Z,26.2
2018-04-02T02:06:40.770Z,26.1
2018-04-02T02:07:29.044Z,26.1
2018-04-02T02:08:19.485Z,26
2018-04-02T02:09:09.568Z,26
2018-04-02T02:09:59.138Z,26
2018-04-02T02:10:50.664Z,26.1
2018-04-02T02:11:39.171Z,26.1
2018-04-02T02:12:29.852Z,26.2
2018-04-02T02:13:19.973Z,26.2
2018-04-02T02:14:09.746Z,26.3
2018-04-02T02:14:59.425Z,26.4
2018-04-02T02:15:50.437Z,26.5
2018-04-02T02:16:39.548Z,26.6
2018-04-02T02:17:29.861Z,26.7
2018-04-02T02:18:19.686Z,26.8
2018-04-02T02:19:10.171Z,26.9
2018-04-02T02:20:00.926Z,26.9
2018-04-02T02:20:51.402Z,27
2018-04-02T02:21:40.665Z,27.1
2018-04-02T02:22:31.131Z,27.2
2018-04-02T02:23:21.108Z,27.3
2018-04-02T02:24:10.487Z,27.3
2018-04-02T02:25:02.030Z,27.3
2018-04-02T02:25:51.773Z,27.4
2018-04-02T02:26:40.780Z,27.3
2018-04-02T02:27:31.065Z,27.3
2018-04-02T02:28:21.140Z,27.3
2018-04-02T02:29:10.276Z,27.3
2018-04-02T02:30:00.798Z,27.3
2018-04-02T02:30:51.464Z,27.3
2018-04-02T02:31:41.643Z,27.2
2018-04-02T02:32:31.271Z,27.2
2018-04-02T02:33:21.701Z,27.1
2018-04-02T02:34:11.920Z,27.1
2018-04-02T02:35:01.900Z,27.1
2018-04-02T02:35:51.625Z,27.1
2018-04-02T02:36:41.507Z,26.9
2018-04-02T02:37:32.443Z,26.9
2018-04-02T02:38:22.692Z,26.8
2018-04-02T02:39:11.683Z,26.7
2018-04-02T02:40:02.970Z,26.6
2018-04-02T02:40:52.105Z,26.5
2018-04-02T02:41:42.566Z,26.4
2018-04-02T02:42:32.257Z,26.4
2018-04-02T02:43:22.569Z,26.3
2018-04-02T02:44:12.617Z,26.3
2018-04-02T02:45:02.809Z,26.1
2018-04-02T02:45:52.932Z,26.1
2018-04-02T02:46:42.226Z,26.1
2018-04-02T02:47:33.644Z,26.1
2018-04-02T02:48:22.812Z,26.1
2018-04-02T02:49:13.030Z,26.2
2018-04-02T02:50:03.422Z,26.3
2018-04-02T02:50:54.466Z,26.3
2018-04-02T02:51:43.925Z,26.4
2018-04-02T02:52:34.644Z,26.4
2018-04-02T02:53:23.779Z,26.6
2018-04-02T02:54:14.396Z,26.6
2018-04-02T02:55:03.920Z,26.7
2018-04-02T02:55:54.228Z,26.7
2018-04-02T02:56:44.813Z,26.7
2018-04-02T02:57:34.632Z,26.7
2018-04-02T02:58:23.885Z,26.7
2018-04-02T02:59:14.477Z,26.7
2018-04-02T03:00:04.582Z,26.7
2018-04-02T03:00:54.877Z,26.7
2018-04-02T03:01:45.229Z,26.6
2018-04-02T03:02:34.504Z,26.6
2018-04-02T03:03:25.679Z,26.6
2018-04-02T03:04:14.521Z,26.6
2018-04-02T03:05:04.094Z,26.6
2018-04-02T03:05:53.240Z,26.7
2018-04-02T03:06:44.484Z,26.8
2018-04-02T03:07:34.311Z,26.8
2018-04-02T03:08:24.010Z,26.9
2018-04-02T03:09:14.592Z,27
2018-04-02T03:10:04.798Z,27.1
2018-04-02T03:10:52.584Z,27.1
2018-04-02T03:11:44.138Z,27.2
2018-04-02T03:12:33.914Z,27.3
2018-04-02T03:13:25.260Z,27.3
2018-04-02T03:14:14.417Z,27.3
2018-04-02T03:15:04.603Z,27.3
2018-04-02T03:15:55.051Z,27.3
2018-04-02T03:16:45.093Z,27.3
2018-04-02T03:17:34.748Z,27.3
2018-04-02T03:18:24.340Z,27.3
2018-04-02T03:19:14.020Z,27.3
2018-04-02T03:20:04.747Z,27.2
2018-04-02T03:20:54.974Z,27.2
2018-04-02T03:21:44.174Z,27.1
2018-04-02T03:22:35.838Z,27.1
2018-04-02T03:23:25.338Z,27
2018-04-02T03:24:16.590Z,26.9
2018-04-02T03:25:20.127Z,26.9
2018-04-02T03:25:55.529Z,26.8
2018-04-02T03:26:45.519Z,26.7
2018-04-02T03:27:35.631Z,26.6
2018-04-02T03:28:25.272Z,26.5
2018-04-02T03:29:15.701Z,26.4
2018-04-02T03:30:05.334Z,26.4
2018-04-02T03:30:55.581Z,26.3
2018-04-02T03:31:46.952Z,26.2
2018-04-02T03:32:36.149Z,26.1
2018-04-02T03:33:25.708Z,26.1
2018-04-02T03:34:15.604Z,26.1
2018-04-02T03:35:06.849Z,26.1
2018-04-02T03:35:56.911Z,26.1
2018-04-02T03:36:46.755Z,26.1
2018-04-02T03:37:36.671Z,26.2
2018-04-02T03:38:25.666Z,26.2
2018-04-02T03:39:16.501Z,26.3
2018-04-02T03:40:07.766Z,26.3
2018-04-02T03:40:56.786Z,26.4
2018-04-02T03:41:46.407Z,26.5
2018-04-02T03:42:36.180Z,26.6
2018-04-02T03:43:27.108Z,26.7
2018-04-02T03:44:17.488Z,26.8
2018-04-02T03:45:06.153Z,26.9
2018-04-02T03:45:56.453Z,26.9
2018-04-02T03:46:46.278Z,27
2018-04-02T03:47:36.252Z,27.1
2018-04-02T03:48:28.336Z,27.1
2018-04-02T03:49:17.797Z,27.3
2018-04-02T03:50:07.887Z,27.3
2018-04-02T03:50:57.920Z,27.3
2018-04-02T03:51:48.008Z,27.3
2018-04-02T03:52:38.628Z,27.3
2018-04-02T03:53:28.403Z,27.3
2018-04-02T03:54:18.756Z,27.3
2018-04-02T03:55:08.542Z,27.3
2018-04-02T03:55:58.577Z,27.3
2018-04-02T03:56:48.957Z,27.3
2018-04-02T03:57:39.325Z,27.2
2018-04-02T03:58:28.520Z,27.1
2018-04-02T03:59:17.703Z,27.1
2018-04-02T04:00:09.460Z,26.9
2018-04-02T04:00:58.380Z,26.9
2018-04-02T04:01:49.623Z,26.8
2018-04-02T04:02:38.512Z,26.7
2018-04-02T04:03:29.407Z,26.6
2018-04-02T04:04:19.169Z,26.5
2018-04-02T04:05:09.002Z,26.4
2018-04-02T04:05:58.467Z,26.4
2018-04-02T04:06:49.906Z,26.3
2018-04-02T04:07:38.335Z,26.2
2018-04-02T04:08:28.538Z,26.2
2018-04-02T04:09:17.822Z,26.1
2018-04-02T04:10:08.843Z,26.1
2018-04-02T04:10:59.002Z,26
2018-04-02T04:11:48.906Z,26.1
2018-04-02T04:12:39.257Z,26.1
2018-04-02T04:13:29.317Z,26.1
2018-04-02T04:14:19.676Z,26.2
2018-04-02T04:15:08.830Z,26.3
2018-04-02T04:15:58.614Z,26.3
2018-04-02T04:16:49.136Z,26.4
2018-04-02T04:17:39.674Z,26.4
2018-04-02T04:18:29.667Z,26.6
2018-04-02T04:19:19.324Z,26.6
2018-04-02T04:20:08.904Z,26.8
2018-04-02T04:20:58.812Z,26.8
2018-04-02T04:21:48.853Z,26.9
2018-04-02T04:22:39.547Z,26.9
2018-04-02T04:23:29.466Z,27.1
2018-04-02T04:24:19.723Z,27.1
2018-04-02T04:25:09.151Z,27.2
2018-04-02T04:25:58.661Z,27.3
2018-04-02T04:26:49.513Z,27.3
2018-04-02T04:27:40.693Z,27.3
2018-04-02T04:28:29.111Z,27.3
2018-04-02T04:29:19.488Z,27.3
2018-04-02T04:30:10.203Z,27.2
2018-04-02T04:31:00.365Z,27.2
2018-04-02T04:31:51.093Z,27.1
2018-04-02T04:32:39.842Z,27.1
2018-04-02T04:33:29.381Z,27.1
2018-04-02T04:34:19.902Z,27.1
2018-04-02T04:35:09.091Z,26.9
2018-04-02T04:36:00.080Z,26.8
2018-04-02T04:36:50.189Z,26.7
2018-04-02T04:37:39.882Z,26.6
2018-04-02T04:38:30.229Z,26.5
2018-04-02T04:39:20.379Z,26.4
2018-04-02T04:40:11.078Z,26.4
2018-04-02T04:41:00.715Z,26.3
2018-04-02T04:41:50.000Z,26.2
2018-04-02T04:42:41.226Z,26.1
2018-04-02T04:43:30.787Z,26
2018-04-02T04:44:21.114Z,25.9
2018-04-02T04:45:10.339Z,25.9
2018-04-02T04:46:01.470Z,25.8
2018-04-02T04:46:50.931Z,25.8
2018-04-02T04:47:41.416Z,25.9
2018-04-02T04:48:31.147Z,25.9
2018-04-02T04:49:21.747Z,26.1
2018-04-02T04:50:10.974Z,26.1
2018-04-02T04:51:01.518Z,26.1
2018-04-02T04:51:51.957Z,26.3
2018-04-02T04:52:41.334Z,26.3
2018-04-02T04:53:32.220Z,26.4
2018-04-02T04:54:21.859Z,26.5
2018-04-02T04:55:11.946Z,26.6
2018-04-02T04:56:02.103Z,26.8
2018-04-02T04:56:52.037Z,26.8
2018-04-02T04:57:41.831Z,26.9
2018-04-02T04:58:31.841Z,27
2018-04-02T04:59:22.324Z,27.1
2018-04-02T05:00:12.701Z,27.1
2018-04-02T05:01:02.177Z,27.2
2018-04-02T05:01:52.230Z,27.1
2018-04-02T05:02:42.561Z,27.1
2018-04-02T05:03:32.371Z,27.2
2018-04-02T05:04:22.531Z,27.2
2018-04-02T05:05:13.154Z,27.1
2018-04-02T05:06:02.570Z,27.1
2018-04-02T05:06:52.663Z,27.1
2018-04-02T05:07:43.545Z,27.1
2018-04-02T05:08:32.813Z,27.1
2018-04-02T05:09:23.913Z,27
2018-04-02T05:10:13.220Z,26.9
2018-04-02T05:11:02.483Z,26.8
2018-04-02T05:11:53.026Z,26.7
2018-04-02T05:12:43.751Z,26.6
2018-04-02T05:13:33.153Z,26.5
2018-04-02T05:14:23.642Z,26.4
2018-04-02T05:15:12.473Z,26.4
2018-04-02T05:16:03.717Z,26.3
2018-04-02T05:16:53.542Z,26.3
2018-04-02T05:17:42.971Z,26.2
2018-04-02T05:18:33.549Z,26.1
2018-04-02T05:19:23.990Z,26.1
2018-04-02T05:20:14.212Z,26.1
2018-04-02T05:21:03.919Z,26
2018-04-02T05:21:53.966Z,25.9
2018-04-02T05:22:43.774Z,25.9
2018-04-02T05:23:33.590Z,25.9
2018-04-02T05:24:24.060Z,25.8
2018-04-02T05:25:14.009Z,25.8
2018-04-02T05:26:03.432Z,25.7
2018-04-02T05:26:54.599Z,25.7
2018-04-02T05:27:45.773Z,25.7
2018-04-02T05:28:35.310Z,25.8
2018-04-02T05:29:25.632Z,25.8
2018-04-02T05:30:15.974Z,25.9
2018-04-02T05:31:05.710Z,25.9
2018-04-02T05:31:55.254Z,26
2018-04-02T05:32:45.609Z,26.1
2018-04-02T05:33:35.412Z,26.2
2018-04-02T05:34:25.766Z,26.3
2018-04-02T05:35:16.112Z,26.4
2018-04-02T05:36:05.879Z,26.5
2018-04-02T05:36:56.201Z,26.6
2018-04-02T05:37:44.814Z,26.8
2018-04-02T05:38:36.329Z,26.8
2018-04-02T05:39:25.318Z,26.9
2018-04-02T05:40:15.275Z,26.9
2018-04-02T05:41:04.262Z,27.1
2018-04-02T05:41:54.981Z,27.1
2018-04-02T05:42:45.468Z,27.1
2018-04-02T05:43:35.631Z,27.1
2018-04-02T05:44:26.743Z,27.1
2018-04-02T05:45:15.522Z,27.1
2018-04-02T05:46:05.934Z,27.1
2018-04-02T05:46:55.687Z,27.1
2018-04-02T05:47:45.346Z,27.1
2018-04-02T05:48:35.507Z,27
2018-04-02T05:49:25.746Z,26.9
2018-04-02T05:50:16.022Z,26.9
2018-04-02T05:51:05.031Z,26.9
2018-04-02T05:51:56.902Z,26.9
2018-04-02T05:52:45.781Z,26.8
2018-04-02T05:53:36.266Z,26.8
2018-04-02T05:54:25.515Z,26.8
2018-04-02T05:55:16.065Z,26.8
2018-04-02T05:56:06.079Z,26.7
2018-04-02T05:56:56.629Z,26.6
2018-04-02T05:57:46.054Z,26.5
2018-04-02T05:58:36.332Z,26.4
2018-04-02T05:59:27.257Z,26.4
2018-04-02T06:00:16.159Z,26.3
2018-04-02T06:01:06.619Z,26.2
2018-04-02T06:01:57.249Z,26.1
2018-04-02T06:02:47.223Z,26.1
2018-04-02T06:03:36.772Z,26
2018-04-02T06:04:27.519Z,25.9
2018-04-02T06:05:17.395Z,25.9
2018-04-02T06:06:07.094Z,25.8
2018-04-02T06:06:57.089Z,25.8
2018-04-02T06:07:46.964Z,25.7
2018-04-02T06:08:37.138Z,25.7
2018-04-02T06:09:26.933Z,25.8
2018-04-02T06:10:16.756Z,25.8
2018-04-02T06:11:07.903Z,25.9
2018-04-02T06:11:56.992Z,25.9
2018-04-02T06:12:46.970Z,25.9
2018-04-02T06:13:37.225Z,26
2018-04-02T06:14:27.758Z,26.1
2018-04-02T06:15:18.313Z,26.1
2018-04-02T06:16:07.309Z,26.3
2018-04-02T06:16:58.103Z,26.3
2018-04-02T06:17:47.408Z,26.4
2018-04-02T06:18:38.479Z,26.5
2018-04-02T06:19:27.996Z,26.6
2018-04-02T06:20:17.196Z,26.7
2018-04-02T06:21:08.053Z,26.8
2018-04-02T06:21:58.685Z,26.9
2018-04-02T06:22:47.475Z,26.9
2018-04-02T06:23:38.218Z,26.9
2018-04-02T06:24:29.696Z,27
2018-04-02T06:25:18.572Z,27
2018-04-02T06:26:08.457Z,26.9
2018-04-02T06:26:58.655Z,27
2018-04-02T06:27:48.912Z,26.9
2018-04-02T06:28:38.687Z,26.9
2018-04-02T06:29:28.772Z,26.9
2018-04-02T06:30:18.499Z,26.9
2018-04-02T06:31:09.462Z,26.9
2018-04-02T06:31:59.229Z,26.9
2018-04-02T06:32:48.005Z,26.9
2018-04-02T06:33:38.543Z,26.8
2018-04-02T06:34:29.579Z,26.8
2018-04-02T06:35:18.797Z,26.8
2018-04-02T06:36:09.305Z,26.8
2018-04-02T06:36:59.295Z,26.7
2018-04-02T06:37:49.926Z,26.6
2018-04-02T06:38:39.307Z,26.6
2018-04-02T06:39:29.399Z,26.4
2018-04-02T06:40:19.635Z,26.4
2018-04-02T06:41:08.504Z,26.3
2018-04-02T06:42:00.137Z,26.2
2018-04-02T06:42:49.462Z,26.1
2018-04-02T06:43:39.419Z,26.1
2018-04-02T06:44:29.752Z,26
2018-04-02T06:45:19.584Z,25.9
2018-04-02T06:46:10.151Z,25.9
2018-04-02T06:47:00.226Z,25.8
2018-04-02T06:47:49.983Z,25.8
2018-04-02T06:48:40.735Z,25.8
2018-04-02T06:49:30.393Z,25.7
2018-04-02T06:50:21.106Z,25.6
2018-04-02T06:51:10.424Z,25.6
2018-04-02T06:52:00.573Z,25.6
2018-04-02T06:52:50.954Z,25.5
2018-04-02T06:53:40.190Z,25.4
2018-04-02T06:54:31.145Z,25.4
2018-04-02T06:55:20.786Z,25.4
2018-04-02T06:56:10.378Z,25.3
2018-04-02T06:57:00.656Z,25.3
2018-04-02T06:57:51.193Z,25.3
2018-04-02T06:58:40.841Z,25.2
2018-04-02T06:59:31.159Z,25.1
2018-04-02T07:00:20.687Z,25.2
2018-04-02T07:01:11.305Z,25.1
2018-04-02T07:02:01.504Z,25.1
2018-04-02T07:02:50.815Z,25.1
2018-04-02T07:03:40.306Z,25
2018-04-02T07:04:31.706Z,24.9
2018-04-02T07:05:21.777Z,24.9
2018-04-02T07:06:11.094Z,24.9
2018-04-02T07:07:01.180Z,24.9
2018-04-02T07:07:51.180Z,24.8
2018-04-02T07:08:41.097Z,24.8
2018-04-02T07:09:31.237Z,24.8
2018-04-02T07:10:22.347Z,24.8
2018-04-02T07:11:11.276Z,24.7
2018-04-02T07:12:01.708Z,24.6
2018-04-02T07:12:51.980Z,24.6
2018-04-02T07:13:41.316Z,24.6
2018-04-02T07:14:32.157Z,24.6
2018-04-02T07:15:22.832Z,24.5
2018-04-02T07:16:11.708Z,24.5
2018-04-02T07:17:01.207Z,24.4
2018-04-02T07:17:52.835Z,24.4
2018-04-02T07:18:42.387Z,24.4
2018-04-02T07:19:32.434Z,24.4
2018-04-02T07:20:22.114Z,24.3
2018-04-02T07:21:12.202Z,24.3
2018-04-02T07:22:01.529Z,24.3
2018-04-02T07:22:51.887Z,24.2
2018-04-02T07:23:43.104Z,24.2
2018-04-02T07:24:33.267Z,24.1
2018-04-02T07:25:22.681Z,24.1
2018-04-02T07:26:12.515Z,24.1
2018-04-02T07:27:02.870Z,24
2018-04-02T07:27:51.692Z,24
2018-04-02T07:28:43.503Z,24
2018-04-02T07:29:33.744Z,23.9
2018-04-02T07:30:21.959Z,23.9
2018-04-02T07:31:12.801Z,23.9
2018-04-02T07:32:03.703Z,23.9
2018-04-02T07:32:53.679Z,23.9
2018-04-02T07:33:42.845Z,23.9
2018-04-02T07:34:32.628Z,23.9
2018-04-02T07:35:22.813Z,23.8
2018-04-02T07:36:13.500Z,23.8
2018-04-02T07:37:03.848Z,23.8
2018-04-02T07:37:53.366Z,23.7
2018-04-02T07:38:44.489Z,23.7
2018-04-02T07:39:34.873Z,23.7
2018-04-02T07:40:23.442Z,23.6
2018-04-02T07:41:13.506Z,23.6
2018-04-02T07:42:03.852Z,23.6
2018-04-02T07:42:53.985Z,23.6
2018-04-02T07:43:44.267Z,23.6
2018-04-02T07:44:34.163Z,23.5
2018-04-02T07:45:25.103Z,23.5
2018-04-02T07:46:14.091Z,23.5
2018-04-02T07:47:04.353Z,23.4
2018-04-02T07:47:53.670Z,23.4
2018-04-02T07:48:44.858Z,23.4
2018-04-02T07:49:34.770Z,23.4
2018-04-02T07:50:25.189Z,23.4
2018-04-02T07:51:14.441Z,23.4
2018-04-02T07:52:04.382Z,23.3
2018-04-02T07:52:54.730Z,23.3
2018-04-02T07:53:44.577Z,23.3
2018-04-02T07:54:35.049Z,23.3
2018-04-02T07:55:24.834Z,23.3
2018-04-02T07:56:14.821Z,23.2
2018-04-02T07:57:05.811Z,23.2
2018-04-02T07:57:55.269Z,23.2
2018-04-02T07:58:44.860Z,23.1
2018-04-02T07:59:35.048Z,23.1
2018-04-02T08:00:25.448Z,23.1
2018-04-02T08:01:15.272Z,23.1
2018-04-02T08:02:05.218Z,23.1
2018-04-02T08:02:55.989Z,23.1
2018-04-02T08:03:45.504Z,23.1
2018-04-02T08:04:35.410Z,23
2018-04-02T08:05:25.824Z,23
2018-04-02T08:06:15.684Z,23
2018-04-02T08:07:05.817Z,22.9
2018-04-02T08:07:56.090Z,22.9
2018-04-02T08:08:46.347Z,22.9
2018-04-02T08:09:35.742Z,22.9
2018-04-02T08:10:25.977Z,22.9
2018-04-02T08:11:17.534Z,22.9
2018-04-02T08:12:06.500Z,22.9
2018-04-02T08:12:55.619Z,22.8
2018-04-02T08:13:45.984Z,22.8
2018-04-02T08:14:36.486Z,22.8
2018-04-02T08:15:26.463Z,22.8
2018-04-02T08:16:16.821Z,22.8
2018-04-02T08:17:05.599Z,22.8
2018-04-02T08:17:57.085Z,22.8
2018-04-02T08:18:46.191Z,22.7
2018-04-02T08:19:37.111Z,22.7
2018-04-02T08:20:27.202Z,22.7
2018-04-02T08:21:17.007Z,22.7
2018-04-02T08:22:07.218Z,22.6
2018-04-02T08:22:57.475Z,22.6
2018-04-02T08:23:46.763Z,22.6
2018-04-02T08:24:36.528Z,22.6
2018-04-02T08:25:26.964Z,22.6
2018-04-02T08:26:17.682Z,22.6
2018-04-02T08:27:07.416Z,22.6
2018-04-02T08:27:57.094Z,22.6
2018-04-02T08:28:47.101Z,22.6
2018-04-02T08:29:37.786Z,22.6
2018-04-02T08:30:26.981Z,22.5
2018-04-02T08:31:17.535Z,22.5
2018-04-02T08:32:07.660Z,22.5
2018-04-02T08:32:58.186Z,22.5
2018-04-02T08:33:48.201Z,22.4
2018-04-02T08:34:36.767Z,22.4
2018-04-02T08:35:27.637Z,22.4
2018-04-02T08:36:18.110Z,22.4
2018-04-02T08:37:08.099Z,22.4
2018-04-02T08:37:58.544Z,22.4
2018-04-02T08:38:48.354Z,22.4
2018-04-02T08:39:38.148Z,22.4
2018-04-02T08:40:28.494Z,22.4
2018-04-02T08:41:18.183Z,22.4
2018-04-02T08:42:08.636Z,22.4
2018-04-02T08:42:58.384Z,22.3
2018-04-02T08:43:47.744Z,22.3
2018-04-02T08:44:37.774Z,22.3
2018-04-02T08:45:28.434Z,22.3
2018-04-02T08:46:19.628Z,22.3
2018-04-02T08:47:08.541Z,22.3
2018-04-02T08:47:58.924Z,22.3
2018-04-02T08:48:48.801Z,22.2
2018-04-02T08:49:38.848Z,22.3
2018-04-02T08:50:28.531Z,22.2
2018-04-02T08:51:19.331Z,22.2
2018-04-02T08:52:08.541Z,22.2
2018-04-02T08:52:59.813Z,22.1
2018-04-02T08:53:49.051Z,22.1
2018-04-02T08:54:38.959Z,22.1
2018-04-02T08:55:28.985Z,22.1
2018-04-02T08:56:19.373Z,22.1
2018-04-02T08:57:10.373Z,22.1
2018-04-02T08:57:59.656Z,22.1
2018-04-02T08:58:49.429Z,22.1
2018-04-02T08:59:40.398Z,22.1
2018-04-02T09:00:29.390Z,22.1
2018-04-02T09:01:19.986Z,22
2018-04-02T09:02:09.779Z,22
2018-04-02T09:02:59.565Z,22
2018-04-02T09:03:49.890Z,22
2018-04-02T09:04:39.948Z,22
2018-04-02T09:05:30.157Z,22
2018-04-02T09:06:20.610Z,21.9
2018-04-02T09:07:10.602Z,21.9
2018-04-02T09:08:00.676Z,21.9
2018-04-02T09:08:50.682Z,21.9
2018-04-02T09:09:40.105Z,21.9
2018-04-02T09:10:30.582Z,21.9
2018-04-02T09:11:20.246Z,21.9
2018-04-02T09:12:10.923Z,21.9
2018-04-02T09:13:00.872Z,21.9
2018-04-02T09:13:51.041Z,21.9
2018-04-02T09:14:39.228Z,21.9
2018-04-02T09:15:31.527Z,21.8
2018-04-02T09:16:21.134Z,21.8
2018-04-02T09:17:10.484Z,21.8
2018-04-02T09:18:00.961Z,21.8
2018-04-02T09:18:51.277Z,21.8
2018-04-02T09:19:41.081Z,21.8
2018-04-02T09:20:31.121Z,21.8
2018-04-02T09:21:21.354Z,21.8
2018-04-02T09:22:10.869Z,21.8
2018-04-02T09:23:01.049Z,21.8
2018-04-02T09:23:51.645Z,21.8
2018-04-02T09:24:41.331Z,21.7
2018-04-02T09:25:31.218Z,21.8
2018-04-02T09:26:23.162Z,21.7
2018-04-02T09:27:11.116Z,21.7
2018-04-02T09:28:00.039Z,21.7
2018-04-02T09:28:50.162Z,21.7
2018-04-02T09:29:41.717Z,21.7
2018-04-02T09:30:31.741Z,21.7
2018-04-02T09:31:21.853Z,21.6
2018-04-02T09:32:11.696Z,21.6
2018-04-02T09:33:02.361Z,21.6
2018-04-02T09:33:52.287Z,21.6
2018-04-02T09:34:43.256Z,21.6
2018-04-02T09:35:32.302Z,21.6
2018-04-02T09:36:22.361Z,21.6
2018-04-02T09:37:12.868Z,21.6
2018-04-02T09:38:02.868Z,21.6
2018-04-02T09:38:53.242Z,21.6
2018-04-02T09:39:42.720Z,21.6
2018-04-02T09:40:32.961Z,21.6
2018-04-02T09:41:22.455Z,21.5
2018-04-02T09:42:13.258Z,21.5
2018-04-02T09:43:04.042Z,21.5
2018-04-02T09:43:54.114Z,21.5
2018-04-02T09:44:44.175Z,21.5
2018-04-02T09:45:33.732Z,21.5
2018-04-02T09:46:23.970Z,21.4
2018-04-02T09:47:14.606Z,21.5
2018-04-02T09:48:04.712Z,21.4
2018-04-02T09:48:54.742Z,21.4
2018-04-02T09:49:44.520Z,21.4
2018-04-02T09:50:34.564Z,21.4
2018-04-02T09:51:24.644Z,21.4
2018-04-02T09:52:14.962Z,21.4
2018-04-02T09:53:04.754Z,21.4
2018-04-02T09:53:54.824Z,21.4
2018-04-02T09:54:45.162Z,21.4
2018-04-02T09:55:34.662Z,21.4
2018-04-02T09:56:25.009Z,21.4
2018-04-02T09:57:15.368Z,21.4
2018-04-02T09:58:05.106Z,21.4
2018-04-02T09:58:54.882Z,21.3
2018-04-02T09:59:45.004Z,21.4
2018-04-02T10:00:35.641Z,21.4
2018-04-02T10:01:25.609Z,21.3
2018-04-02T10:02:15.431Z,21.3
2018-04-02T10:03:04.908Z,21.3
2018-04-02T10:03:55.256Z,21.3
2018-04-02T10:04:48.111Z,21.3
2018-04-02T10:05:34.786Z,21.3
2018-04-02T10:06:26.595Z,21.3
2018-04-02T10:07:15.803Z,21.3
2018-04-02T10:08:05.884Z,21.3
2018-04-02T10:08:55.898Z,21.3
2018-04-02T10:09:45.444Z,21.3
2018-04-02T10:10:35.823Z,21.3
2018-04-02T10:11:26.359Z,21.3
2018-04-02T10:12:15.626Z,21.3
2018-04-02T10:13:05.933Z,21.2
2018-04-02T10:13:56.339Z,21.3
2018-04-02T10:14:46.089Z,21.2
2018-04-02T10:15:36.504Z,21.2
2018-04-02T10:16:26.500Z,21.2
2018-04-02T10:17:15.948Z,21.2
2018-04-02T10:18:06.613Z,21.2
2018-04-02T10:18:56.624Z,21.2
2018-04-02T10:19:45.862Z,21.2
2018-04-02T10:20:35.546Z,21.2
2018-04-02T10:26:25.808Z,21.1
2018-04-02T10:28:06.321Z,21.1
2018-04-02T10:28:56.142Z,21.1
2018-04-02T10:30:35.387Z,21.1
2018-04-02T10:31:26.572Z,21.1
2018-04-02T10:32:16.124Z,21.1
2018-04-02T10:33:07.013Z,21.1
2018-04-02T10:33:56.932Z,21.1
2018-04-02T10:34:47.066Z,21.1
2018-04-02T10:35:35.742Z,21.1
2018-04-02T10:36:25.237Z,21
2018-04-02T10:37:16.162Z,21
2018-04-02T10:38:06.234Z,21
2018-04-02T10:38:56.893Z,21
2018-04-02T10:39:46.639Z,21
2018-04-02T10:40:37.031Z,21
2018-04-02T10:41:27.144Z,21
2018-04-02T10:42:17.031Z,20.9
2018-04-02T10:43:07.027Z,20.9
2018-04-02T10:43:56.764Z,20.9
2018-04-02T10:44:47.504Z,20.9
2018-04-02T10:45:36.202Z,20.9
2018-04-02T10:46:28.011Z,20.9
2018-04-02T10:47:17.015Z,20.9
2018-04-02T10:48:07.776Z,20.9
2018-04-02T10:48:57.881Z,20.9
2018-04-02T10:49:46.808Z,20.9
2018-04-02T10:50:37.148Z,20.9
2018-04-02T10:51:28.139Z,20.9
2018-04-02T10:52:18.138Z,20.9
2018-04-02T10:53:07.850Z,20.9
2018-04-02T10:53:57.879Z,20.9
2018-04-02T10:54:48.463Z,20.9
2018-04-02T10:55:37.207Z,20.9
2018-04-02T10:56:28.649Z,20.9
2018-04-02T10:57:17.455Z,20.9
2018-04-02T10:58:06.914Z,20.9
2018-04-02T10:58:58.539Z,20.9
2018-04-02T10:59:49.649Z,20.8
2018-04-02T11:00:37.383Z,20.9
2018-04-02T11:01:28.843Z,20.9
2018-04-02T11:02:19.012Z,20.9
2018-04-02T11:03:08.587Z,20.8
2018-04-02T11:03:59.150Z,20.8
2018-04-02T11:04:49.300Z,20.8
2018-04-02T11:05:39.596Z,20.8
2018-04-02T11:06:28.745Z,20.8
2018-04-02T11:07:18.693Z,20.8
2018-04-02T11:08:09.520Z,20.8
2018-04-02T11:08:58.738Z,20.8
2018-04-02T11:09:48.581Z,20.8
2018-04-02T11:10:39.616Z,20.8
2018-04-02T11:11:30.066Z,20.8
2018-04-02T11:12:18.483Z,20.8
2018-04-02T11:13:09.717Z,20.8
2018-04-02T11:13:58.759Z,20.8
2018-04-02T11:14:48.963Z,20.8
2018-04-02T11:15:39.149Z,20.8